createdAt,value
2023-05-14T16:56:34.516Z,24.25
2023-05-14T16:59:03.226Z,24.23
2023-05-14T17:01:34.543Z,24.30
2023-05-14T17:04:02.974Z,24.32
2023-05-14T17:06:31.485Z,24.32
2023-05-14T17:09:00.150Z,24.31
2023-05-14T17:11:28.661Z,24.29
2023-05-14T17:14:02.014Z,24.28
2023-05-14T17:16:29.124Z,24.26
2023-05-14T17:18:56.555Z,24.24
2023-05-14T17:21:25.063Z,24.23
2023-05-14T17:23:53.236Z,24.21
2023-05-14T17:26:22.077Z,24.19
2023-05-14T17:28:53.174Z,24.17
2023-05-14T17:31:22.688Z,24.15
2023-05-14T17:33:51.274Z,24.11
2023-05-14T17:36:19.893Z,24.08
2023-05-14T17:38:48.504Z,24.03
2023-05-14T17:41:17.003Z,23.99
2023-05-14T17:43:45.528Z,23.95
2023-05-14T17:46:14.053Z,23.90
2023-05-14T17:48:42.510Z,23.87
2023-05-14T17:51:10.894Z,23.83
2023-05-14T17:53:39.343Z,23.77
2023-05-14T17:56:07.884Z,23.70
2023-05-14T17:58:36.521Z,23.65
2023-05-14T18:01:06.354Z,23.60
2023-05-14T18:03:34.902Z,23.55
2023-05-14T18:06:03.499Z,23.50
2023-05-14T18:08:32.488Z,23.45
2023-05-14T18:11:01.250Z,23.40
2023-05-14T18:13:29.667Z,23.33
2023-05-14T18:15:58.045Z,23.28
2023-05-14T18:18:26.546Z,23.22
2023-05-14T18:20:55.684Z,23.17
2023-05-14T18:23:24.175Z,23.13
2023-05-14T18:25:53.005Z,23.06
2023-05-14T18:28:21.782Z,22.99
2023-05-14T18:30:50.189Z,22.96
2023-05-14T18:33:18.806Z,22.91
2023-05-14T18:35:47.205Z,22.84
2023-05-14T18:38:18.077Z,22.75
2023-05-14T18:40:47.431Z,22.66
2023-05-14T18:43:17.116Z,22.58
2023-05-14T18:45:49.152Z,22.51
2023-05-14T18:48:17.885Z,22.44
2023-05-14T18:50:46.403Z,22.38
2023-05-14T18:53:15.135Z,22.32
2023-05-14T18:55:43.563Z,22.24
2023-05-14T18:58:12.552Z,22.17
2023-05-14T19:00:40.929Z,22.10
2023-05-14T19:03:09.379Z,22.05
2023-05-14T19:05:38.819Z,22.00
2023-05-14T19:08:09.092Z,21.93
2023-05-14T19:10:37.784Z,21.87
2023-05-14T19:13:06.831Z,21.80
2023-05-14T19:15:38.158Z,21.76
2023-05-14T19:18:07.194Z,21.72
2023-05-14T19:20:35.529Z,21.70
2023-05-14T19:23:04.130Z,21.68
2023-05-14T19:25:33.079Z,21.67
2023-05-14T19:28:04.042Z,21.66
2023-05-14T19:30:32.619Z,21.64
2023-05-14T19:33:01.283Z,21.62
2023-05-14T19:35:29.829Z,21.45
2023-05-14T19:37:58.163Z,21.39
2023-05-14T19:40:26.312Z,21.34
2023-05-14T19:42:54.639Z,21.30
2023-05-14T19:45:23.149Z,21.26
2023-05-14T19:47:51.985Z,21.21
2023-05-14T19:50:20.507Z,21.18
2023-05-14T19:52:49.245Z,21.15
2023-05-14T19:55:17.578Z,21.09
2023-05-14T19:57:45.717Z,21.03
2023-05-14T20:00:18.965Z,20.98
2023-05-14T20:02:48.579Z,20.92
2023-05-14T20:05:17.015Z,20.90
2023-05-14T20:07:47.202Z,20.86
2023-05-14T20:10:16.772Z,20.79
2023-05-14T20:12:45.153Z,20.69
2023-05-14T20:15:14.038Z,20.61
2023-05-14T20:17:42.469Z,20.58
2023-05-14T20:20:12.493Z,20.56
2023-05-14T20:22:42.819Z,20.55
2023-05-14T20:25:11.323Z,20.53
2023-05-14T20:27:40.676Z,20.52
2023-05-14T20:30:11.310Z,20.49
2023-05-14T20:32:40.019Z,20.48
2023-05-14T20:35:08.623Z,20.42
2023-05-14T20:37:38.194Z,20.38
2023-05-14T20:40:08.180Z,20.31
2023-05-14T20:42:37.656Z,20.25
2023-05-14T20:45:07.859Z,20.22
2023-05-14T20:47:37.224Z,20.18
2023-05-14T20:50:06.207Z,20.13
2023-05-14T20:52:34.568Z,20.08
2023-05-14T20:55:03.982Z,20.02
2023-05-14T20:57:32.365Z,19.96
2023-05-14T21:00:00.663Z,19.94
2023-05-14T21:02:29.263Z,19.90
2023-05-14T21:04:58.337Z,19.83
2023-05-14T21:07:28.932Z,19.73
2023-05-14T21:09:57.830Z,19.68
2023-05-14T21:12:26.467Z,19.64
2023-05-14T21:14:54.953Z,19.63
2023-05-14T21:17:23.415Z,19.61
2023-05-14T21:19:51.824Z,19.59
2023-05-14T21:22:22.557Z,19.55
2023-05-14T21:24:51.454Z,19.47
2023-05-14T21:27:19.824Z,19.42
2023-05-14T21:29:48.664Z,19.37
2023-05-14T21:32:16.993Z,19.29
2023-05-14T21:34:46.586Z,19.23
2023-05-14T21:37:14.955Z,19.21
2023-05-14T21:39:43.489Z,19.18
2023-05-14T21:42:11.637Z,19.13
2023-05-14T21:44:42.345Z,19.10
2023-05-14T21:47:11.841Z,19.07
2023-05-14T21:49:42.079Z,19.05
2023-05-14T21:52:11.059Z,19.01
2023-05-14T21:54:39.494Z,18.98
2023-05-14T21:57:07.892Z,18.92
2023-05-14T21:59:37.959Z,18.89
2023-05-14T22:02:07.915Z,18.84
2023-05-14T22:04:37.414Z,18.79
2023-05-14T22:07:05.792Z,18.75
2023-05-14T22:09:34.319Z,18.73
2023-05-14T22:12:02.822Z,18.70
2023-05-14T22:14:31.134Z,18.69
2023-05-14T22:16:59.496Z,18.66
2023-05-14T22:19:28.156Z,18.65
2023-05-14T22:21:56.677Z,18.63
2023-05-14T22:24:25.149Z,18.62
2023-05-14T22:26:53.476Z,18.62
2023-05-14T22:29:21.626Z,18.60
2023-05-14T22:31:50.079Z,18.58
2023-05-14T22:34:19.611Z,18.56
2023-05-14T22:36:47.851Z,18.53
2023-05-14T22:39:16.238Z,18.50
2023-05-14T22:41:44.524Z,18.48
2023-05-14T22:44:12.889Z,18.46
2023-05-14T22:46:41.374Z,18.44
2023-05-14T22:49:09.756Z,18.43
2023-05-14T22:51:39.126Z,18.43
2023-05-14T22:54:07.408Z,18.40
2023-05-14T22:56:38.651Z,18.38
2023-05-14T22:59:07.633Z,18.38
2023-05-14T23:01:35.918Z,18.37
2023-05-14T23:04:04.349Z,18.37
2023-05-14T23:06:32.979Z,18.37
2023-05-14T23:09:01.182Z,18.37
2023-05-14T23:11:29.859Z,18.35
2023-05-14T23:13:58.151Z,18.32
2023-05-14T23:16:29.050Z,18.30
2023-05-14T23:18:57.556Z,18.28
2023-05-14T23:21:26.380Z,18.26
2023-05-14T23:23:54.674Z,18.24
2023-05-14T23:26:22.843Z,18.21
2023-05-14T23:28:51.482Z,18.19
2023-05-14T23:31:19.848Z,18.15
2023-05-14T23:33:48.172Z,18.13
2023-05-14T23:36:16.529Z,18.12
2023-05-14T23:38:45.552Z,18.08
2023-05-14T23:41:14.050Z,18.07
2023-05-14T23:43:42.200Z,18.06
2023-05-14T23:46:10.854Z,18.03
2023-05-14T23:48:43.652Z,18.03
2023-05-14T23:51:11.986Z,18.02
2023-05-14T23:53:40.241Z,18.00
2023-05-14T23:56:08.766Z,17.97
2023-05-14T23:58:37.159Z,17.94
